Bungo Princess — 3FXV8 — position and weather

sailwx.info

Track history (hours):
 
Tides and Currents Weather Stations Pressure Air Temp Water Temp Dewpoint Dewpoint Depression Visibility Wind Speed Wind Dir Waves Ship Positions

Bungo Princess

Last reported at 2014-Sep-21 10:07 UTC. Time now 2014-Sep-30 18:05 UTC.
Position N 22°10' E 114°03'.
Warning: this ship's position is 9 days out of date.

Length 103 m; draft 6.3 m.

Type: Cargo ship. MMSI: 355091000.

Date/timePositionNaut miles runAvg speedWind from/ knotsBaromVisibWave heightAir tempDewpointWater temp
2014-Sep-21 10:07N 22°10' E 114°03'3 5.1
2014-Sep-21 09:29N 22°08' E 114°01'910.2
2014-Sep-21 08:33N 22°06' E 113°51'7 7.0
2014-Sep-21 07:33N 22°12' E 113°47'1212.4
2014-Sep-21 06:33N 22°25' E 113°46'2014.0
2014-Sep-21 05:09N 22°43' E 113°40'711.1
2014-Sep-21 04:33N 22°49' E 113°36'10 9.9
2014-Sep-21 03:33N 22°58' E 113°32'5 5.3
2014-Sep-21 02:33N 23°03' E 113°31'0 0.0
2014-Sep-21 01:23N 23°03' E 113°31'0 0.0
2014-Sep-21 00:17N 23°03' E 113°31'0 0.1
2014-Sep-20 23:17N 23°03' E 113°30'0 0.1
2014-Sep-20 22:17N 23°03' E 113°31'0 0.0
2014-Sep-20 21:29N 23°03' E 113°31'0 0.1
2014-Sep-20 20:29N 23°03' E 113°30'0 0.1
2014-Sep-20 19:29N 23°03' E 113°31'0 0.0
2014-Sep-20 18:17N 23°03' E 113°30'0 0.1
2014-Sep-20 17:11N 23°03' E 113°31'0 0.0
2014-Sep-20 16:29N 23°03' E 113°31'0 0.0
2014-Sep-20 15:29N 23°03' E 113°31'0 0.0
2014-Sep-20 14:11N 23°03' E 113°30'0 0.1
2014-Sep-20 13:29N 23°03' E 113°31'0 0.0
2014-Sep-20 11:29N 23°03' E 113°30'0 0.0
2014-Sep-20 10:05N 23°03' E 113°31'0 0.1
2014-Sep-20 09:23N 23°03' E 113°30'0 0.1
2014-Sep-20 08:29N 23°03' E 113°31'0 0.0
2014-Sep-20 07:29N 23°03' E 113°31'0 0.0
2014-Sep-20 06:29N 23°03' E 113°31'0 0.0
2014-Sep-20 05:29N 23°03' E 113°31'2 1.8
2014-Sep-20 04:33N 23°01' E 113°31'8 7.7
2014-Sep-20 03:33N 22°54' E 113°34'1010.0
2014-Sep-20 02:31N 22°45' E 113°39'1610.9
2014-Sep-20 01:04N 22°30' E 113°45'612.4
2014-Sep-20 00:33N 22°24' E 113°46'1110.9
2014-Sep-19 23:33N 22°13' E 113°48'8 8.0
2014-Sep-19 22:33N 22°06' E 113°50'4 1.2
2014-Sep-19 19:33N 22°05' E 113°54'  
Track history (hours):
 
Tides and Currents Weather Stations Pressure Air Temp Water Temp Dewpoint Dewpoint Depression Visibility Wind Speed Wind Dir Waves Ship Positions

Bungo Princess

Last reported at 2014-Sep-21 10:07 UTC. Time now 2014-Sep-30 18:05 UTC.
Position N 22°10' E 114°03'.
Warning: this ship's position is 9 days out of date.

Length 103 m; draft 6.3 m.

Type: Cargo ship. MMSI: 355091000.

Date/timePositionNaut miles runAvg speedWind from/ knotsBaromVisibWave heightAir tempDewpointWater temp
2014-Sep-21 10:07N 22°10' E 114°03'3 5.1
2014-Sep-21 09:29N 22°08' E 114°01'910.2
2014-Sep-21 08:33N 22°06' E 113°51'7 7.0
2014-Sep-21 07:33N 22°12' E 113°47'1212.4
2014-Sep-21 06:33N 22°25' E 113°46'2014.0
2014-Sep-21 05:09N 22°43' E 113°40'711.1
2014-Sep-21 04:33N 22°49' E 113°36'10 9.9
2014-Sep-21 03:33N 22°58' E 113°32'5 5.3
2014-Sep-21 02:33N 23°03' E 113°31'0 0.0
2014-Sep-21 01:23N 23°03' E 113°31'0 0.0
2014-Sep-21 00:17N 23°03' E 113°31'0 0.1
2014-Sep-20 23:17N 23°03' E 113°30'0 0.1
2014-Sep-20 22:17N 23°03' E 113°31'0 0.0
2014-Sep-20 21:29N 23°03' E 113°31'0 0.1
2014-Sep-20 20:29N 23°03' E 113°30'0 0.1
2014-Sep-20 19:29N 23°03' E 113°31'0 0.0
2014-Sep-20 18:17N 23°03' E 113°30'0 0.1
2014-Sep-20 17:11N 23°03' E 113°31'0 0.0
2014-Sep-20 16:29N 23°03' E 113°31'0 0.0
2014-Sep-20 15:29N 23°03' E 113°31'0 0.0
2014-Sep-20 14:11N 23°03' E 113°30'0 0.1
2014-Sep-20 13:29N 23°03' E 113°31'0 0.0
2014-Sep-20 11:29N 23°03' E 113°30'0 0.0
2014-Sep-20 10:05N 23°03' E 113°31'0 0.1
2014-Sep-20 09:23N 23°03' E 113°30'0 0.1
2014-Sep-20 08:29N 23°03' E 113°31'0 0.0
2014-Sep-20 07:29N 23°03' E 113°31'0 0.0
2014-Sep-20 06:29N 23°03' E 113°31'0 0.0
2014-Sep-20 05:29N 23°03' E 113°31'2 1.8
2014-Sep-20 04:33N 23°01' E 113°31'8 7.7
2014-Sep-20 03:33N 22°54' E 113°34'1010.0
2014-Sep-20 02:31N 22°45' E 113°39'1610.9
2014-Sep-20 01:04N 22°30' E 113°45'612.4
2014-Sep-20 00:33N 22°24' E 113°46'1110.9
2014-Sep-19 23:33N 22°13' E 113°48'8 8.0
2014-Sep-19 22:33N 22°06' E 113°50'4 1.2
2014-Sep-19 19:33N 22°05' E 113°54'  

Dump ship's entire track history